Share

Pavlodar, Kazakhstan

5:30 PM ALMT on April 23, 2014 (GMT +0600)
Pavlodar (UASP) Elev 410 ft | 52.19 °N, 77.07 °E | Change Station

Current weather conditions updated 30 minutes ago

Scattered Clouds
Scattered Clouds
50 °F
Feels Like 50 °F
N
18
Wind Variable Wind from SW
Sunrise 5:38 AM
Sunset 8:03 PM
Moon Last Quarter

Tomorrow is forecast to be Much Warmer than today.

Pressure 30.42 in
Visibility 6.2 miles
Clouds Scattered Clouds 4000 ft
Scattered Clouds 16000 ft
Dew Point 10 °F
Humidity 20%
Rainfall 0.00 in
Snow Depth Not available.
UV 1 out of 16
Pollen Not available.
Air Quality Not available.
Flu Activity Not available.
METAR UASP 231100Z 22008MPS 9999 SCT040 SCT160 10/M12 Q1030 R21/0///70 NOSIG RMK QFE761/1015

More Conditions Fewer Conditions

Pressure 30.42 in
Visibility 6.2 miles
Clouds Scattered Clouds 4000 ft
Scattered Clouds 16000 ft
Dew Point 10 °F
Humidity 20%
Rainfall 0.00 in
Snow Depth Not available.
UV 1 out of 16
Pollen Not available.
Air Quality Not available.
Flu Activity Not available.
METAR UASP 231100Z 22008MPS 9999 SCT040 SCT160 10/M12 Q1030 R21/0///70 NOSIG RMK QFE761/1015

More Conditions Fewer Conditions

10-Day Weather Forecast

Almanac

Astronomy

Apr. 23, 2014 Rise Set
Actual Time 5:38 AM ALMT 8:03 PM ALMT
Civil Twilight 5:01 AM ALMT 8:40 PM ALMT
Nautical Twilight 4:13 AM ALMT 9:28 PM ALMT
Astronomical Twilight 3:17 AM ALMT 10:24 PM ALMT
Moon 2:40 AM ALMT 12:53 PM ALMT
Length of Visible Light 15h 39m
Length of Day
14h 24m
Tomorrow will be 3m 48s longer.
Last Quarter, 37% of the Moon is Illuminated
Today
Last Quarter
Apr 29
New
May 6
First Quarter
May 14
Full
May 21
Last Quarter

Yesterday's Extremes

Country Highs Country Lows

Community

  • April Sunset
    April Sunset
  • Waiting..
    Waiting..
  • Sunset...
    Sunset...
  • Happy outdoor day
    Happy outdoor day
  • mystic afternoon....
    mystic afternoon....

WunderPhotos

Upload Photos

1,704,247 photos uploaded!

WunderBlogs® & News

By Dr. Jeff Masters
Director of Meteorology, Weather Underground
By Kari Strenfel
Meteorologist, Weather Underground
By Christopher C. Burt
Weather Historian, Weather Underground
April 23, 2014
April 23, 2014
April 23, 2014

Nearby

Snow Depth

Not available.

Coastal Water Temperatures

Place Temperature
No Stations Reporting

Earthquake Activity

City Distance Mag. Time & Date
No recent earthquake activity has been reported nearby.
Minimum magnitude displayed is 2.5.

Nearby Weather Stations

There are no personal weather stations in this area.

What do you think?

We're not finished. Please let us know what you like, what you don't like, and what you are still missing.